Time;durP1;ratioP1;P1;durP2;ratioP2;P2;SDS_P1;SDS_P2;PMS_P1;PMS_P2;Temp;Humidity;BMP_temperature;BMP_pressure;BME280_temperature;BME280_humidity;BME280_pressure;Samples;Min_cycle;Max_cycle;Signal;HPM_P1;HPM_P2
2021/12/24 00:02:01;;;;;;;122.90;23.77;;;;;;;;;;4967739;28;20039;-74
2021/12/24 00:04:28;;;;;;;128.02;25.05;;;;;;;;;;4968355;28;20062;-74
2021/12/24 00:06:54;;;;;;;141.48;25.00;;;;;;;;;;4987974;28;20061;-74
2021/12/24 00:09:22;;;;;;;91.10;22.58;;;;;;;;;;4974279;28;20483;-74
2021/12/24 00:11:54;;;;;;;102.88;24.73;;;;;;;;;;4971304;28;20047;-74
2021/12/24 00:14:22;;;;;;;84.68;22.48;;;;;;;;;;4971524;28;20050;-74
2021/12/24 00:16:53;;;;;;;88.10;23.83;;;;;;;;;;4967463;28;20054;-74
2021/12/24 00:35:34;;;;;;;69.88;25.90;;;;;;;;;;4967897;28;20130;-74
2021/12/24 00:38:03;;;;;;;78.30;25.83;;;;;;;;;;4968169;28;20058;-74
2021/12/24 00:40:30;;;;;;;73.55;25.15;;;;;;;;;;4969232;28;20114;-74
2021/12/24 00:42:56;;;;;;;71.55;26.02;;;;;;;;;;4969700;28;20043;-74
2021/12/24 00:45:28;;;;;;;85.78;27.88;;;;;;;;;;4964534;28;20054;-74
2021/12/24 00:47:54;;;;;;;73.43;26.02;;;;;;;;;;4968676;28;20668;-74
2021/12/24 00:50:24;;;;;;;69.28;26.92;;;;;;;;;;4964652;28;20620;-74
2021/12/24 00:53:01;;;;;;;63.40;25.05;;;;;;;;;;4968251;28;20066;-74
2021/12/24 00:55:28;;;;;;;76.78;26.30;;;;;;;;;;4969804;28;20050;-74
2021/12/24 00:57:56;;;;;;;74.30;26.40;;;;;;;;;;4970011;28;20059;-74
2021/12/24 01:00:23;;;;;;;70.65;25.80;;;;;;;;;;4971212;28;20050;-74
2021/12/24 01:02:50;;;;;;;67.90;25.73;;;;;;;;;;4965329;28;20058;-75
2021/12/24 01:05:16;;;;;;;75.47;26.02;;;;;;;;;;4969472;28;20051;-75
2021/12/24 01:07:46;;;;;;;65.13;25.65;;;;;;;;;;4967648;28;20067;-74
2021/12/24 01:10:14;;;;;;;67.40;25.40;;;;;;;;;;4970272;28;20057;-74
2021/12/24 01:12:40;;;;;;;78.30;26.75;;;;;;;;;;4969187;28;20042;-74
2021/12/24 01:15:06;;;;;;;68.03;25.38;;;;;;;;;;4969335;28;20066;-74
2021/12/24 01:17:42;;;;;;;74.35;25.95;;;;;;;;;;4968497;28;20045;-74
2021/12/24 01:20:22;;;;;;;77.07;26.50;;;;;;;;;;4966754;28;20410;-74
2021/12/24 01:45:00;;;;;;;62.38;21.35;;;;;;;;;;4972587;28;20487;-75
2021/12/24 01:47:26;;;;;;;66.97;23.25;;;;;;;;;;4977469;28;20142;-75
2021/12/24 01:49:52;;;;;;;95.60;24.58;;;;;;;;;;4971363;28;20039;-75
2021/12/24 01:52:18;;;;;;;63.55;21.83;;;;;;;;;;4966044;28;20046;-74
2021/12/24 01:54:45;;;;;;;83.80;22.70;;;;;;;;;;4971488;28;20042;-75
2021/12/24 01:57:14;;;;;;;85.32;21.08;;;;;;;;;;4974047;28;20063;-74
2021/12/24 01:59:40;;;;;;;82.00;21.98;;;;;;;;;;4970811;28;20054;-75
2021/12/24 02:02:06;;;;;;;82.13;21.55;;;;;;;;;;4970452;28;20046;-74
2021/12/24 02:04:33;;;;;;;77.72;21.00;;;;;;;;;;4973633;28;20061;-74
2021/12/24 02:06:59;;;;;;;88.65;21.23;;;;;;;;;;4973737;28;20137;-75
2021/12/24 02:09:25;;;;;;;86.60;20.92;;;;;;;;;;4971995;28;20070;-74
2021/12/24 02:11:52;;;;;;;81.22;20.20;;;;;;;;;;4967550;28;20043;-75
2021/12/24 02:14:21;;;;;;;108.57;21.55;;;;;;;;;;4971057;28;20078;-75
2021/12/24 02:17:19;;;;;;;105.38;21.27;;;;;;;;;;4967746;28;20042;-75
2021/12/24 02:31:01;;;;;;;84.40;22.05;;;;;;;;;;4988340;28;20436;-75
2021/12/24 02:33:27;;;;;;;91.05;20.30;;;;;;;;;;4995543;28;20045;-75
2021/12/24 02:35:53;;;;;;;130.65;23.92;;;;;;;;;;4992341;28;20051;-75
2021/12/24 02:38:19;;;;;;;103.00;21.38;;;;;;;;;;4968989;28;20061;-75
2021/12/24 02:40:45;;;;;;;92.22;20.45;;;;;;;;;;4978997;28;20050;-74
2021/12/24 02:43:15;;;;;;;132.98;23.38;;;;;;;;;;4970109;28;20541;-74
2021/12/24 02:45:43;;;;;;;89.38;21.23;;;;;;;;;;4971834;28;20050;-75
2021/12/24 02:56:07;;;;;;;56.90;19.70;;;;;;;;;;4967100;28;20047;-75
2021/12/24 02:58:44;;;;;;;68.25;21.42;;;;;;;;;;4970241;28;20062;-75
2021/12/24 03:01:11;;;;;;;67.43;25.02;;;;;;;;;;4969632;28;20053;-74
2021/12/24 03:03:38;;;;;;;65.22;25.50;;;;;;;;;;4969202;28;20047;-74
2021/12/24 03:06:04;;;;;;;73.60;25.63;;;;;;;;;;4970066;28;20135;-74
2021/12/24 03:08:30;;;;;;;71.35;28.63;;;;;;;;;;4971517;28;20055;-75
2021/12/24 03:10:58;;;;;;;68.57;25.75;;;;;;;;;;4968703;28;20501;-75
2021/12/24 03:13:25;;;;;;;82.50;27.10;;;;;;;;;;4971522;28;20059;-75
2021/12/24 03:15:53;;;;;;;71.97;25.92;;;;;;;;;;4970455;28;20050;-75
2021/12/24 03:18:26;;;;;;;68.13;24.85;;;;;;;;;;4969724;28;20439;-75
2021/12/24 03:21:00;;;;;;;67.82;24.95;;;;;;;;;;4970011;28;20054;-75
2021/12/24 03:26:25;;;;;;;65.97;22.38;;;;;;;;;;4962682;28;20440;-75
2021/12/24 03:28:51;;;;;;;61.35;21.73;;;;;;;;;;4973229;28;20077;-75
2021/12/24 03:31:17;;;;;;;62.80;23.08;;;;;;;;;;4967278;28;20066;-75
2021/12/24 03:33:43;;;;;;;56.63;21.10;;;;;;;;;;4970280;28;20077;-75
2021/12/24 03:36:09;;;;;;;56.63;21.92;;;;;;;;;;4969441;28;20109;-74
2021/12/24 03:38:36;;;;;;;53.92;20.23;;;;;;;;;;4970788;28;20047;-75
2021/12/24 03:41:02;;;;;;;58.58;21.95;;;;;;;;;;4965756;28;20438;-74
2021/12/24 03:43:28;;;;;;;64.28;21.60;;;;;;;;;;4970274;28;20042;-74
2021/12/24 03:48:38;;;;;;;58.33;20.02;;;;;;;;;;4970075;28;20055;-75
2021/12/24 03:51:23;;;;;;;58.08;18.25;;;;;;;;;;4970914;28;20050;-75
2021/12/24 03:56:35;;;;;;;62.97;21.75;;;;;;;;;;4968349;28;20043;-74
2021/12/24 03:59:02;;;;;;;54.25;21.30;;;;;;;;;;4971187;28;20046;-75
2021/12/24 04:01:28;;;;;;;57.22;22.85;;;;;;;;;;4965770;28;20055;-75
2021/12/24 04:03:54;;;;;;;63.35;20.13;;;;;;;;;;4968813;28;20050;-75
2021/12/24 04:06:20;;;;;;;58.20;22.77;;;;;;;;;;4969656;28;20061;-75
2021/12/24 04:08:46;;;;;;;44.45;18.88;;;;;;;;;;4967490;28;20100;-74
2021/12/24 04:11:12;;;;;;;62.10;23.45;;;;;;;;;;4969401;28;20106;-75
2021/12/24 04:13:38;;;;;;;62.80;20.40;;;;;;;;;;4969012;28;20165;-75
2021/12/24 04:16:05;;;;;;;52.35;20.70;;;;;;;;;;4967810;28;20065;-75
2021/12/24 04:26:32;;;;;;;45.97;18.50;;;;;;;;;;4969691;28;20043;-74
2021/12/24 04:28:58;;;;;;;50.50;17.20;;;;;;;;;;4968841;28;20047;-75
2021/12/24 04:31:38;;;;;;;44.42;16.85;;;;;;;;;;4969974;28;20054;-75
2021/12/24 04:34:04;;;;;;;42.60;15.93;;;;;;;;;;4969437;28;20046;-75
2021/12/24 04:39:13;;;;;;;40.70;15.90;;;;;;;;;;4968796;28;20051;-75
2021/12/24 04:52:56;;;;;;;38.83;13.63;;;;;;;;;;4968526;28;20047;-74
2021/12/24 05:03:58;;;;;;;37.70;12.27;;;;;;;;;;4987357;28;20137;-74
2021/12/24 05:08:54;;;;;;;41.40;12.63;;;;;;;;;;4966823;28;20053;-75
2021/12/24 05:11:20;;;;;;;41.13;13.38;;;;;;;;;;4965389;28;20058;-74
2021/12/24 05:13:47;;;;;;;40.03;13.13;;;;;;;;;;4969282;28;20448;-75
2021/12/24 05:16:23;;;;;;;40.60;13.43;;;;;;;;;;4966884;28;20055;-74
2021/12/24 05:21:35;;;;;;;41.45;12.07;;;;;;;;;;4967275;28;20137;-74
2021/12/24 05:24:02;;;;;;;49.15;12.05;;;;;;;;;;4975406;28;20046;-75
2021/12/24 05:26:29;;;;;;;42.40;11.35;;;;;;;;;;4970680;28;20571;-75
2021/12/24 05:28:56;;;;;;;45.10;12.02;;;;;;;;;;4973385;28;20394;-75
2021/12/24 05:31:23;;;;;;;37.78;10.68;;;;;;;;;;4969147;28;20051;-75
2021/12/24 05:33:49;;;;;;;47.22;12.07;;;;;;;;;;4973768;28;20051;-74
2021/12/24 05:36:15;;;;;;;40.72;12.15;;;;;;;;;;4972975;28;20062;-75
2021/12/24 05:38:41;;;;;;;40.08;11.18;;;;;;;;;;4970409;28;20422;-75
2021/12/24 05:41:07;;;;;;;39.33;9.82;;;;;;;;;;4969810;28;20074;-74
2021/12/24 05:43:33;;;;;;;28.00;10.02;;;;;;;;;;4976089;28;20082;-75
2021/12/24 05:45:59;;;;;;;35.00;10.25;;;;;;;;;;4971901;28;20054;-75
2021/12/24 05:48:25;;;;;;;31.75;9.45;;;;;;;;;;4972381;28;20055;-75
2021/12/24 05:50:51;;;;;;;29.00;9.43;;;;;;;;;;4971721;28;20513;-74
2021/12/24 05:53:17;;;;;;;34.17;11.10;;;;;;;;;;4971798;28;20051;-74
2021/12/24 05:55:43;;;;;;;34.70;10.45;;;;;;;;;;4971673;28;20102;-74
2021/12/24 05:58:09;;;;;;;39.85;10.65;;;;;;;;;;4976370;28;20055;-75
2021/12/24 06:00:38;;;;;;;27.08;9.77;;;;;;;;;;4962090;28;20157;-75
2021/12/24 06:03:05;;;;;;;29.23;9.75;;;;;;;;;;4972207;28;20047;-75
2021/12/24 06:05:31;;;;;;;29.75;9.57;;;;;;;;;;4974504;28;20047;-75
2021/12/24 06:07:57;;;;;;;28.05;8.95;;;;;;;;;;4970303;28;20508;-75
2021/12/24 06:10:23;;;;;;;31.77;10.10;;;;;;;;;;4971704;28;20046;-75
2021/12/24 06:12:49;;;;;;;35.80;10.20;;;;;;;;;;4972655;28;20121;-75
2021/12/24 06:15:16;;;;;;;29.15;9.30;;;;;;;;;;4967721;28;20054;-75
2021/12/24 06:17:42;;;;;;;34.28;10.13;;;;;;;;;;4974663;28;20046;-75
2021/12/24 06:20:12;;;;;;;32.80;8.93;;;;;;;;;;4972445;28;20046;-75
2021/12/24 06:22:38;;;;;;;34.50;9.63;;;;;;;;;;4975090;28;20047;-75
2021/12/24 06:25:04;;;;;;;26.95;8.70;;;;;;;;;;4972389;28;20054;-75
2021/12/24 06:27:30;;;;;;;28.83;9.05;;;;;;;;;;4978968;28;20039;-75
2021/12/24 06:29:56;;;;;;;35.95;8.90;;;;;;;;;;4966762;28;20130;-75
2021/12/24 06:32:22;;;;;;;29.42;8.30;;;;;;;;;;4972594;28;20051;-75
2021/12/24 06:34:49;;;;;;;29.88;7.68;;;;;;;;;;4969925;28;20050;-75
2021/12/24 06:37:16;;;;;;;30.15;8.80;;;;;;;;;;4971556;28;20122;-75
2021/12/24 06:39:42;;;;;;;25.65;8.30;;;;;;;;;;4969315;28;20125;-75
2021/12/24 06:42:08;;;;;;;32.88;7.88;;;;;;;;;;4971069;28;20094;-74
2021/12/24 06:44:34;;;;;;;31.63;7.88;;;;;;;;;;4972124;28;20051;-75
2021/12/24 06:47:00;;;;;;;29.80;8.50;;;;;;;;;;4972333;28;20138;-75
2021/12/24 06:49:26;;;;;;;23.17;7.10;;;;;;;;;;4970425;28;20050;-76
2021/12/24 06:51:52;;;;;;;27.00;7.40;;;;;;;;;;4969213;28;20498;-75
2021/12/24 06:54:18;;;;;;;24.42;7.25;;;;;;;;;;4971544;28;20490;-75
2021/12/24 06:56:45;;;;;;;23.38;7.68;;;;;;;;;;4967202;28;20050;-75
2021/12/24 06:59:11;;;;;;;25.92;6.63;;;;;;;;;;4967376;28;20054;-74
2021/12/24 07:01:37;;;;;;;24.30;7.07;;;;;;;;;;4970268;28;20039;-74
2021/12/24 07:04:03;;;;;;;23.90;6.80;;;;;;;;;;4971782;28;20074;-75
2021/12/24 07:06:29;;;;;;;23.92;7.18;;;;;;;;;;4969314;28;20411;-74
2021/12/24 07:08:56;;;;;;;27.13;6.82;;;;;;;;;;4970339;28;20046;-75
2021/12/24 07:11:22;;;;;;;26.85;7.35;;;;;;;;;;4968849;28;20475;-74
2021/12/24 07:13:48;;;;;;;33.38;7.63;;;;;;;;;;4974233;28;20437;-74
2021/12/24 07:16:14;;;;;;;26.65;6.72;;;;;;;;;;4972283;28;20039;-75
2021/12/24 07:18:40;;;;;;;21.85;6.90;;;;;;;;;;4970061;28;20422;-75
2021/12/24 07:21:06;;;;;;;26.40;7.18;;;;;;;;;;4970458;28;20079;-74
2021/12/24 07:23:32;;;;;;;27.85;7.70;;;;;;;;;;4973984;28;20035;-75
2021/12/24 07:25:58;;;;;;;24.77;6.95;;;;;;;;;;4972958;28;20042;-75
2021/12/24 07:28:24;;;;;;;29.10;7.53;;;;;;;;;;4970746;28;20051;-75
2021/12/24 07:30:50;;;;;;;32.17;8.95;;;;;;;;;;4972144;28;20054;-75
2021/12/24 07:33:17;;;;;;;27.02;7.55;;;;;;;;;;4969775;28;20055;-75
2021/12/24 07:35:43;;;;;;;29.45;7.65;;;;;;;;;;4967043;28;20122;-74
2021/12/24 07:38:13;;;;;;;24.42;6.97;;;;;;;;;;4969268;28;20101;-74
2021/12/24 07:40:39;;;;;;;27.10;7.20;;;;;;;;;;4969490;28;20047;-74
2021/12/24 07:43:05;;;;;;;34.25;7.45;;;;;;;;;;4970219;28;20050;-74
2021/12/24 07:45:31;;;;;;;31.63;7.15;;;;;;;;;;4969293;28;20109;-75
2021/12/24 07:48:12;;;;;;;28.83;7.13;;;;;;;;;;4975444;28;20050;-74
2021/12/24 07:53:10;;;;;;;34.25;7.10;;;;;;;;;;4964241;28;20817;-73
2021/12/24 07:55:37;;;;;;;33.38;6.88;;;;;;;;;;4967748;28;20129;-76
2021/12/24 07:58:04;;;;;;;34.45;7.50;;;;;;;;;;4967476;28;20133;-75
2021/12/24 08:00:30;;;;;;;37.90;7.90;;;;;;;;;;4965955;28;20053;-74
2021/12/24 08:02:57;;;;;;;24.00;8.27;;;;;;;;;;4967512;28;20059;-74
2021/12/24 08:05:25;;;;;;;34.53;8.30;;;;;;;;;;4968897;28;20491;-75
2021/12/24 08:07:52;;;;;;;35.33;8.27;;;;;;;;;;4964084;28;20055;-75
2021/12/24 08:10:18;;;;;;;35.47;8.30;;;;;;;;;;4968215;28;20126;-74
2021/12/24 08:12:44;;;;;;;32.60;8.43;;;;;;;;;;4963834;28;20566;-73
2021/12/24 08:15:10;;;;;;;34.40;7.93;;;;;;;;;;4969699;28;20154;-75
2021/12/24 08:17:37;;;;;;;32.10;7.80;;;;;;;;;;4965754;28;20100;-74
2021/12/24 08:20:06;;;;;;;38.95;7.80;;;;;;;;;;4969290;28;20049;-75
2021/12/24 08:22:33;;;;;;;30.05;8.65;;;;;;;;;;4968847;28;20490;-75
2021/12/24 08:24:59;;;;;;;31.90;8.10;;;;;;;;;;4963341;28;20151;-75
2021/12/24 08:27:25;;;;;;;40.45;9.73;;;;;;;;;;4975568;28;20082;-75
2021/12/24 08:29:52;;;;;;;41.92;8.32;;;;;;;;;;4969474;28;20051;-75
2021/12/24 08:32:18;;;;;;;33.55;8.10;;;;;;;;;;4971596;28;20046;-75
2021/12/24 08:34:44;;;;;;;35.42;8.38;;;;;;;;;;4967140;28;21589;-74
2021/12/24 08:37:10;;;;;;;32.00;8.93;;;;;;;;;;4967562;28;20047;-74
2021/12/24 08:39:36;;;;;;;39.65;8.95;;;;;;;;;;4971594;28;20561;-74
2021/12/24 08:42:03;;;;;;;30.02;8.85;;;;;;;;;;4964788;28;20046;-75
2021/12/24 08:44:34;;;;;;;30.27;8.63;;;;;;;;;;4968761;28;20069;-75
2021/12/24 08:47:01;;;;;;;39.67;9.18;;;;;;;;;;4968959;28;20054;-75
2021/12/24 08:49:27;;;;;;;34.08;8.60;;;;;;;;;;4966882;28;20074;-75
2021/12/24 08:51:54;;;;;;;32.90;8.48;;;;;;;;;;4966696;28;20070;-75
2021/12/24 08:54:21;;;;;;;28.30;8.30;;;;;;;;;;4969531;28;20113;-75
2021/12/24 08:56:47;;;;;;;37.00;9.52;;;;;;;;;;4964331;28;20054;-75
2021/12/24 08:59:13;;;;;;;39.13;10.82;;;;;;;;;;4968729;28;20074;-76
2021/12/24 09:01:42;;;;;;;34.15;10.93;;;;;;;;;;4966837;28;20093;-74
2021/12/24 09:04:09;;;;;;;32.03;10.40;;;;;;;;;;4964590;28;20047;-75
2021/12/24 09:06:35;;;;;;;34.08;9.77;;;;;;;;;;4968137;28;20462;-73
2021/12/24 09:09:01;;;;;;;35.08;10.25;;;;;;;;;;4967198;28;20046;-74
2021/12/24 09:11:27;;;;;;;36.88;10.07;;;;;;;;;;4964194;28;21541;-75
2021/12/24 09:13:53;;;;;;;29.77;8.65;;;;;;;;;;4966984;28;20487;-74
2021/12/24 09:16:19;;;;;;;24.10;8.00;;;;;;;;;;4965376;28;20106;-74
2021/12/24 09:18:48;;;;;;;15.85;6.00;;;;;;;;;;4966343;28;20134;-75
2021/12/24 09:21:17;;;;;;;18.27;5.05;;;;;;;;;;4968051;28;20046;-74
2021/12/24 09:23:47;;;;;;;10.07;3.97;;;;;;;;;;4967361;28;20146;-74
2021/12/24 09:26:13;;;;;;;15.73;3.80;;;;;;;;;;4966691;28;20443;-74
2021/12/24 09:28:39;;;;;;;12.77;3.30;;;;;;;;;;4963919;28;20055;-74
2021/12/24 09:31:05;;;;;;;11.10;3.28;;;;;;;;;;4964007;28;20081;-74
2021/12/24 09:33:31;;;;;;;8.98;3.00;;;;;;;;;;4969662;28;20058;-74
2021/12/24 09:35:57;;;;;;;10.30;2.78;;;;;;;;;;4965275;28;20058;-75
2021/12/24 09:38:23;;;;;;;7.32;2.80;;;;;;;;;;4964310;28;20380;-74
2021/12/24 09:40:49;;;;;;;10.23;2.50;;;;;;;;;;4968505;28;20430;-74
2021/12/24 09:43:15;;;;;;;7.90;2.20;;;;;;;;;;4969326;28;20082;-74
2021/12/24 09:45:41;;;;;;;6.40;2.20;;;;;;;;;;4963122;28;20074;-74
2021/12/24 09:48:07;;;;;;;7.03;2.38;;;;;;;;;;4963541;28;20137;-75
2021/12/24 09:50:33;;;;;;;6.03;2.42;;;;;;;;;;4968844;28;20035;-74
2021/12/24 09:52:59;;;;;;;5.32;2.08;;;;;;;;;;4967703;28;20078;-74
2021/12/24 09:55:26;;;;;;;8.13;3.58;;;;;;;;;;4965869;28;20106;-74
2021/12/24 09:57:53;;;;;;;5.72;2.47;;;;;;;;;;4964836;28;20098;-75
2021/12/24 10:00:19;;;;;;;1.98;1.85;;;;;;;;;;4964527;28;20051;-74
2021/12/24 10:02:48;;;;;;;2.05;1.80;;;;;;;;;;4966945;28;20126;-75
2021/12/24 10:05:32;;;;;;;3.75;1.98;;;;;;;;;;4966283;28;20343;-74
2021/12/24 10:08:09;;;;;;;4.10;1.95;;;;;;;;;;4967959;28;20498;-75
2021/12/24 10:10:36;;;;;;;2.10;1.90;;;;;;;;;;4970599;28;20054;-75
2021/12/24 10:13:21;;;;;;;2.40;1.80;;;;;;;;;;4969067;28;20051;-75
2021/12/24 10:15:54;;;;;;;1.70;1.60;;;;;;;;;;4973546;28;20082;-74
2021/12/24 10:18:34;;;;;;;2.42;1.98;;;;;;;;;;4973251;28;20074;-75
2021/12/24 10:21:01;;;;;;;4.85;2.35;;;;;;;;;;4969224;28;20050;-75
2021/12/24 10:23:46;;;;;;;3.72;1.98;;;;;;;;;;4970996;28;20061;-74
2021/12/24 10:26:20;;;;;;;5.15;2.38;;;;;;;;;;4967115;28;20063;-74
2021/12/24 10:28:52;;;;;;;4.65;2.80;;;;;;;;;;4976938;28;20066;-75
2021/12/24 10:31:23;;;;;;;5.73;3.20;;;;;;;;;;4966442;28;21207;-75
2021/12/24 10:34:07;;;;;;;6.65;2.85;;;;;;;;;;4968470;28;20361;-75
2021/12/24 10:36:33;;;;;;;3.65;2.28;;;;;;;;;;4966770;28;20572;-75
2021/12/24 10:38:59;;;;;;;2.13;1.90;;;;;;;;;;4973080;28;20039;-75
2021/12/24 10:41:28;;;;;;;3.33;2.13;;;;;;;;;;4964368;28;20113;-75
2021/12/24 10:43:54;;;;;;;3.38;2.35;;;;;;;;;;4970527;28;20078;-75
2021/12/24 10:46:22;;;;;;;2.42;1.88;;;;;;;;;;4968819;28;20427;-75
2021/12/24 10:49:02;;;;;;;4.30;2.58;;;;;;;;;;4967550;28;20051;-75
2021/12/24 10:51:54;;;;;;;4.18;2.80;;;;;;;;;;4971892;28;20130;-75
2021/12/24 10:54:18;;;;;;;6.50;2.85;;;;;;;;;;4969511;28;20149;-75
2021/12/24 10:56:44;;;;;;;3.85;2.80;;;;;;;;;;4965455;28;20086;-75
2021/12/24 10:59:12;;;;;;;4.80;2.78;;;;;;;;;;4969334;28;20051;-75
2021/12/24 11:01:38;;;;;;;4.28;2.50;;;;;;;;;;4972652;28;20417;-75
2021/12/24 11:04:05;;;;;;;2.97;2.20;;;;;;;;;;4966210;28;20054;-75
2021/12/24 11:06:32;;;;;;;3.92;2.67;;;;;;;;;;4965962;28;20138;-75
2021/12/24 11:08:58;;;;;;;4.65;3.38;;;;;;;;;;4970193;28;20053;-75
2021/12/24 11:11:24;;;;;;;5.43;2.75;;;;;;;;;;4971112;28;20406;-74
2021/12/24 11:13:52;;;;;;;5.03;2.65;;;;;;;;;;4966638;28;20403;-75
2021/12/24 11:16:19;;;;;;;4.68;2.65;;;;;;;;;;4970326;28;20070;-74
2021/12/24 11:18:47;;;;;;;4.97;3.10;;;;;;;;;;4968148;28;20046;-74
2021/12/24 11:21:13;;;;;;;3.33;2.92;;;;;;;;;;4970496;28;20046;-75
2021/12/24 11:23:40;;;;;;;4.68;2.70;;;;;;;;;;4966517;28;20062;-75
2021/12/24 11:26:06;;;;;;;3.72;3.15;;;;;;;;;;4972525;28;20101;-75
2021/12/24 11:28:33;;;;;;;3.80;3.00;;;;;;;;;;4972488;28;20077;-75
2021/12/24 11:31:00;;;;;;;5.38;3.40;;;;;;;;;;4961985;28;20117;-74
2021/12/24 11:33:28;;;;;;;7.28;3.50;;;;;;;;;;4970157;28;20078;-74
2021/12/24 11:35:55;;;;;;;7.03;3.10;;;;;;;;;;4970250;28;20050;-75
2021/12/24 11:38:23;;;;;;;4.10;2.42;;;;;;;;;;4965921;28;20054;-74
2021/12/24 11:40:50;;;;;;;5.22;2.88;;;;;;;;;;4968943;28;20511;-75
2021/12/24 11:43:18;;;;;;;3.20;2.65;;;;;;;;;;4967456;28;20053;-74
2021/12/24 11:45:44;;;;;;;3.92;2.40;;;;;;;;;;4967291;28;20528;-75
2021/12/24 11:48:10;;;;;;;5.25;2.60;;;;;;;;;;4966525;28;20580;-75
2021/12/24 11:50:36;;;;;;;5.85;2.92;;;;;;;;;;4966884;28;20043;-75
2021/12/24 11:53:06;;;;;;;4.43;2.90;;;;;;;;;;4970535;28;20082;-75
2021/12/24 11:55:34;;;;;;;7.05;3.20;;;;;;;;;;4969000;28;20058;-75
2021/12/24 11:58:01;;;;;;;5.43;3.60;;;;;;;;;;4974051;28;20065;-75
2021/12/24 12:00:30;;;;;;;6.82;3.80;;;;;;;;;;4971769;28;20051;-74
2021/12/24 12:02:56;;;;;;;5.43;3.90;;;;;;;;;;4969548;28;20082;-74
2021/12/24 12:05:26;;;;;;;4.97;4.07;;;;;;;;;;4970299;28;20050;-74
2021/12/24 12:07:52;;;;;;;5.90;4.07;;;;;;;;;;4966700;28;20117;-74
2021/12/24 12:10:42;;;;;;;6.05;3.88;;;;;;;;;;4968678;28;20553;-74
2021/12/24 12:13:28;;;;;;;5.93;3.80;;;;;;;;;;4967411;28;20059;-74
2021/12/24 12:15:57;;;;;;;8.05;4.40;;;;;;;;;;4966738;28;20046;-73
2021/12/24 12:18:29;;;;;;;5.70;4.72;;;;;;;;;;4963454;28;20039;-73
2021/12/24 12:21:08;;;;;;;10.27;5.50;;;;;;;;;;4965455;28;20042;-72
2021/12/24 12:26:43;;;;;;;7.65;4.93;;;;;;;;;;4982774;28;20043;-73
2021/12/24 12:29:21;;;;;;;8.15;4.88;;;;;;;;;;4966175;28;20051;-73
2021/12/24 12:31:50;;;;;;;6.53;4.40;;;;;;;;;;4967815;28;20089;-73
2021/12/24 12:34:35;;;;;;;7.35;4.55;;;;;;;;;;4964978;28;20047;-72
2021/12/24 12:37:21;;;;;;;6.28;4.57;;;;;;;;;;4962233;28;20046;-72
2021/12/24 12:39:58;;;;;;;4.80;3.80;;;;;;;;;;4962628;28;20046;-72
2021/12/24 12:42:44;;;;;;;4.82;3.90;;;;;;;;;;4957266;28;20107;-73
2021/12/24 12:45:10;;;;;;;6.35;3.40;;;;;;;;;;4958496;28;20057;-73
2021/12/24 12:47:50;;;;;;;6.25;3.90;;;;;;;;;;4964372;28;20034;-73
2021/12/24 12:50:17;;;;;;;4.38;3.20;;;;;;;;;;4963860;28;20050;-72
2021/12/24 12:52:43;;;;;;;4.07;3.60;;;;;;;;;;4966330;28;20065;-73
2021/12/24 12:55:28;;;;;;;6.93;3.88;;;;;;;;;;4964895;28;20058;-73
2021/12/24 12:58:14;;;;;;;11.07;5.00;;;;;;;;;;4965114;28;20051;-73
2021/12/24 13:00:40;;;;;;;8.45;4.70;;;;;;;;;;4965763;28;20191;-73
2021/12/24 13:03:07;;;;;;;12.73;4.65;;;;;;;;;;4964988;28;20133;-73
2021/12/24 13:05:42;;;;;;;10.30;4.80;;;;;;;;;;4967056;28;20038;-73
2021/12/24 13:08:11;;;;;;;8.40;4.50;;;;;;;;;;4967621;28;20600;-73
2021/12/24 13:10:37;;;;;;;9.18;5.18;;;;;;;;;;4969059;28;20129;-73
2021/12/24 13:13:04;;;;;;;6.57;3.80;;;;;;;;;;4967776;28;20100;-73
2021/12/24 13:15:31;;;;;;;6.05;4.07;;;;;;;;;;4965318;28;20047;-73
2021/12/24 13:18:02;;;;;;;6.63;3.50;;;;;;;;;;4967366;28;20372;-74
2021/12/24 13:22:26;;;;;;;5.05;3.70;;;;;;;;;;4969318;28;20491;-73
2021/12/24 13:23:37;;;;;;;7.55;3.90;;;;;;;;;;4968477;28;20074;-73
2021/12/24 13:26:11;;;;;;;6.95;4.25;;;;;;;;;;4967454;28;20101;-73
2021/12/24 13:28:55;;;;;;;5.18;3.30;;;;;;;;;;4968152;28;20051;-72
2021/12/24 13:31:21;;;;;;;6.45;3.85;;;;;;;;;;4966307;28;20051;-75
2021/12/24 13:33:48;;;;;;;6.00;3.33;;;;;;;;;;4966118;28;20049;-73
2021/12/24 13:36:14;;;;;;;5.53;3.60;;;;;;;;;;4967342;28;20051;-73
2021/12/24 13:38:40;;;;;;;5.88;2.70;;;;;;;;;;4967316;28;20113;-73
2021/12/24 13:41:06;;;;;;;5.25;3.20;;;;;;;;;;4964347;28;20475;-73
2021/12/24 13:43:36;;;;;;;6.43;3.47;;;;;;;;;;4969863;28;20046;-73
2021/12/24 13:46:07;;;;;;;6.72;3.65;;;;;;;;;;4970909;28;20055;-73
2021/12/24 13:48:46;;;;;;;5.35;3.25;;;;;;;;;;4969102;28;20039;-73
2021/12/24 13:56:39;;;;;;;4.45;3.13;;;;;;;;;;4970984;28;20043;-73
2021/12/24 13:59:05;;;;;;;6.72;3.25;;;;;;;;;;4968757;28;20094;-73
2021/12/24 14:01:31;;;;;;;9.68;3.42;;;;;;;;;;4972922;28;20105;-73
2021/12/24 14:03:59;;;;;;;8.98;3.85;;;;;;;;;;4971869;28;20121;-73
2021/12/24 14:06:48;;;;;;;6.45;3.25;;;;;;;;;;4968595;28;20074;-73
2021/12/24 14:09:19;;;;;;;5.45;3.15;;;;;;;;;;4965099;28;20494;-73
2021/12/24 14:11:47;;;;;;;5.07;3.00;;;;;;;;;;4971423;28;20130;-72
2021/12/24 14:14:19;;;;;;;7.10;3.58;;;;;;;;;;4969582;28;20054;-73
2021/12/24 14:19:17;;;;;;;5.55;4.20;;;;;;;;;;4971268;28;20717;-73
2021/12/24 14:21:45;;;;;;;6.70;4.50;;;;;;;;;;4970907;28;20121;-73
2021/12/24 14:24:13;;;;;;;7.97;3.85;;;;;;;;;;4966394;28;20448;-72
2021/12/24 14:26:40;;;;;;;4.53;3.15;;;;;;;;;;4969434;28;20094;-73
2021/12/24 14:29:07;;;;;;;5.85;3.10;;;;;;;;;;4971732;28;20901;-73
2021/12/24 14:31:52;;;;;;;4.47;3.13;;;;;;;;;;4971733;28;20446;-73
2021/12/24 14:34:30;;;;;;;7.93;3.03;;;;;;;;;;4967161;28;20043;-73
2021/12/24 14:36:57;;;;;;;7.18;4.10;;;;;;;;;;4970859;28;20139;-72
2021/12/24 14:39:23;;;;;;;6.00;3.60;;;;;;;;;;4972702;28;20525;-73
2021/12/24 14:42:07;;;;;;;5.10;2.45;;;;;;;;;;4982794;28;20039;-73
2021/12/24 14:44:33;;;;;;;7.32;1.80;;;;;;;;;;4974166;28;20134;-73
2021/12/24 14:46:59;;;;;;;6.85;3.15;;;;;;;;;;4971565;28;20142;-74
2021/12/24 14:49:36;;;;;;;3.05;1.75;;;;;;;;;;4974830;28;20053;-73
2021/12/24 14:52:34;;;;;;;3.80;1.90;;;;;;;;;;4967961;28;20051;-73
2021/12/24 14:55:15;;;;;;;3.13;1.95;;;;;;;;;;4968050;28;20507;-73
2021/12/24 14:57:52;;;;;;;4.45;1.52;;;;;;;;;;4972562;28;20082;-74
2021/12/24 15:00:20;;;;;;;4.35;1.60;;;;;;;;;;4983982;28;20086;-73
2021/12/24 15:02:48;;;;;;;1.92;1.60;;;;;;;;;;4969385;28;20043;-73
2021/12/24 15:05:28;;;;;;;6.22;1.80;;;;;;;;;;4969192;28;20097;-73
2021/12/24 15:07:54;;;;;;;3.85;2.10;;;;;;;;;;4966947;28;20054;-74
2021/12/24 15:10:20;;;;;;;3.75;1.70;;;;;;;;;;4964846;28;20077;-73
2021/12/24 15:12:50;;;;;;;5.35;1.90;;;;;;;;;;4969793;28;20061;-73
2021/12/24 15:15:17;;;;;;;3.67;1.77;;;;;;;;;;4966599;28;20059;-73
2021/12/24 15:17:44;;;;;;;1.77;1.60;;;;;;;;;;4969828;28;20577;-73
2021/12/24 15:20:10;;;;;;;4.85;2.30;;;;;;;;;;4969649;28;20403;-73
2021/12/24 15:22:37;;;;;;;7.30;3.03;;;;;;;;;;4974076;28;20054;-74
2021/12/24 15:25:03;;;;;;;6.18;2.83;;;;;;;;;;4965039;28;20451;-74
2021/12/24 15:27:35;;;;;;;5.78;2.97;;;;;;;;;;4973460;28;20062;-74
2021/12/24 15:30:02;;;;;;;9.07;4.25;;;;;;;;;;4964896;28;20062;-74
2021/12/24 15:32:28;;;;;;;9.27;4.25;;;;;;;;;;4969256;28;20097;-74
2021/12/24 15:34:54;;;;;;;7.10;3.85;;;;;;;;;;4967162;28;20047;-73
2021/12/24 15:37:20;;;;;;;9.23;4.00;;;;;;;;;;4968718;28;20053;-74
2021/12/24 15:39:46;;;;;;;8.45;3.42;;;;;;;;;;4973961;28;20043;-75
2021/12/24 15:42:12;;;;;;;6.65;3.03;;;;;;;;;;4966008;28;20047;-73
2021/12/24 15:44:45;;;;;;;6.13;3.33;;;;;;;;;;4968048;28;20769;-73
2021/12/24 15:47:11;;;;;;;6.22;2.70;;;;;;;;;;4969656;28;20137;-74
2021/12/24 15:49:37;;;;;;;6.45;3.63;;;;;;;;;;4971417;28;20255;-76
2021/12/24 15:52:03;;;;;;;8.30;3.03;;;;;;;;;;4971078;28;20046;-75
2021/12/24 15:54:29;;;;;;;8.43;3.40;;;;;;;;;;4971714;28;20055;-76
2021/12/24 15:56:55;;;;;;;10.13;4.10;;;;;;;;;;4969097;28;20074;-77
2021/12/24 15:59:21;;;;;;;10.82;5.25;;;;;;;;;;4970696;28;20058;-74
2021/12/24 16:01:47;;;;;;;10.30;5.10;;;;;;;;;;4966606;28;20101;-73
2021/12/24 16:04:13;;;;;;;11.98;6.20;;;;;;;;;;4970067;28;20035;-73
2021/12/24 16:06:39;;;;;;;17.77;6.55;;;;;;;;;;4968299;28;20541;-72
2021/12/24 16:09:05;;;;;;;12.95;6.30;;;;;;;;;;4971024;28;20058;-73
2021/12/24 16:11:31;;;;;;;13.55;6.78;;;;;;;;;;4969949;28;20047;-73
2021/12/24 16:13:57;;;;;;;15.02;6.78;;;;;;;;;;4970336;28;20610;-73
2021/12/24 16:16:25;;;;;;;13.70;7.30;;;;;;;;;;4965569;28;20093;-73
2021/12/24 16:18:52;;;;;;;15.90;7.47;;;;;;;;;;4967707;28;20489;-74
2021/12/24 16:21:18;;;;;;;14.32;8.10;;;;;;;;;;4964842;28;20050;-74
2021/12/24 16:23:44;;;;;;;16.98;8.05;;;;;;;;;;4966794;28;20372;-73
2021/12/24 16:26:11;;;;;;;15.77;7.70;;;;;;;;;;4965541;28;20133;-74
2021/12/24 16:28:37;;;;;;;12.10;6.65;;;;;;;;;;4968965;28;20438;-73
2021/12/24 16:31:03;;;;;;;13.73;6.13;;;;;;;;;;4969579;28;20042;-74
2021/12/24 16:33:29;;;;;;;9.90;5.20;;;;;;;;;;4965820;28;20558;-73
2021/12/24 16:35:55;;;;;;;10.90;5.93;;;;;;;;;;4972475;28;20042;-73